sensor_id;sensor_type;location;lat;lon;timestamp;temperature;humidity
9847;DHT22;4962;50.084;8.794;2022-11-12T00:00:56;13.00;99.90
9847;DHT22;4962;50.084;8.794;2022-11-12T00:03:24;13.00;99.90
9847;DHT22;4962;50.084;8.794;2022-11-12T00:05:50;12.90;99.90
9847;DHT22;4962;50.084;8.794;2022-11-12T00:08:18;13.00;99.90
9847;DHT22;4962;50.084;8.794;2022-11-12T00:10:45;13.00;99.90
9847;DHT22;4962;50.084;8.794;2022-11-12T00:13:15;13.00;99.90
9847;DHT22;4962;50.084;8.794;2022-11-12T00:15:42;12.90;99.90
9847;DHT22;4962;50.084;8.794;2022-11-12T00:18:10;12.90;99.90
9847;DHT22;4962;50.084;8.794;2022-11-12T00:20:37;12.90;99.90
9847;DHT22;4962;50.084;8.794;2022-11-12T00:23:04;12.90;99.90
9847;DHT22;4962;50.084;8.794;2022-11-12T00:25:31;12.90;99.90
9847;DHT22;4962;50.084;8.794;2022-11-12T00:28:02;12.90;99.90
9847;DHT22;4962;50.084;8.794;2022-11-12T00:30:31;12.90;99.90
9847;DHT22;4962;50.084;8.794;2022-11-12T00:33:00;12.80;99.90
9847;DHT22;4962;50.084;8.794;2022-11-12T00:35:28;12.80;99.90
9847;DHT22;4962;50.084;8.794;2022-11-12T00:37:56;12.80;99.90
9847;DHT22;4962;50.084;8.794;2022-11-12T00:40:24;12.80;99.90
9847;DHT22;4962;50.084;8.794;2022-11-12T00:42:51;12.80;99.90
9847;DHT22;4962;50.084;8.794;2022-11-12T00:45:19;12.70;99.90
9847;DHT22;4962;50.084;8.794;2022-11-12T00:47:48;12.70;99.90
9847;DHT22;4962;50.084;8.794;2022-11-12T00:50:15;12.70;99.90
9847;DHT22;4962;50.084;8.794;2022-11-12T00:52:42;12.70;99.90
9847;DHT22;4962;50.084;8.794;2022-11-12T00:55:09;12.70;99.90
9847;DHT22;4962;50.084;8.794;2022-11-12T00:57:36;12.70;99.90
9847;DHT22;4962;50.084;8.794;2022-11-12T01:00:05;12.70;99.90
9847;DHT22;4962;50.084;8.794;2022-11-12T01:02:32;12.60;99.90
9847;DHT22;4962;50.084;8.794;2022-11-12T01:05:00;12.70;99.90
9847;DHT22;4962;50.084;8.794;2022-11-12T01:07:27;12.60;99.90
9847;DHT22;4962;50.084;8.794;2022-11-12T01:09:54;12.50;99.90
9847;DHT22;4962;50.084;8.794;2022-11-12T01:12:21;12.60;99.90
9847;DHT22;4962;50.084;8.794;2022-11-12T01:14:47;12.50;99.90
9847;DHT22;4962;50.084;8.794;2022-11-12T01:17:14;12.50;99.90
9847;DHT22;4962;50.084;8.794;2022-11-12T01:19:41;12.50;99.90
9847;DHT22;4962;50.084;8.794;2022-11-12T01:22:10;12.50;99.90
9847;DHT22;4962;50.084;8.794;2022-11-12T01:24:37;12.40;99.90
9847;DHT22;4962;50.084;8.794;2022-11-12T01:27:03;12.40;99.90
9847;DHT22;4962;50.084;8.794;2022-11-12T01:29:30;12.40;99.90
9847;DHT22;4962;50.084;8.794;2022-11-12T01:31:57;12.40;99.90
9847;DHT22;4962;50.084;8.794;2022-11-12T01:34:25;12.40;99.90
9847;DHT22;4962;50.084;8.794;2022-11-12T01:36:51;12.30;99.90
9847;DHT22;4962;50.084;8.794;2022-11-12T01:39:20;12.30;99.90
9847;DHT22;4962;50.084;8.794;2022-11-12T01:41:47;12.20;99.90
9847;DHT22;4962;50.084;8.794;2022-11-12T01:44:16;12.20;99.90
9847;DHT22;4962;50.084;8.794;2022-11-12T01:46:56;12.10;99.90
9847;DHT22;4962;50.084;8.794;2022-11-12T01:49:29;12.10;99.90
9847;DHT22;4962;50.084;8.794;2022-11-12T01:52:05;12.00;99.90
9847;DHT22;4962;50.084;8.794;2022-11-12T01:54:35;12.00;99.90
9847;DHT22;4962;50.084;8.794;2022-11-12T01:57:02;11.90;99.90
9847;DHT22;4962;50.084;8.794;2022-11-12T01:59:33;11.90;99.90
9847;DHT22;4962;50.084;8.794;2022-11-12T02:02:02;11.90;99.90
9847;DHT22;4962;50.084;8.794;2022-11-12T02:04:29;11.90;99.90
9847;DHT22;4962;50.084;8.794;2022-11-12T02:06:58;11.80;99.90
9847;DHT22;4962;50.084;8.794;2022-11-12T02:09:26;11.80;99.90
9847;DHT22;4962;50.084;8.794;2022-11-12T02:11:54;11.80;99.90
9847;DHT22;4962;50.084;8.794;2022-11-12T02:14:21;11.70;99.90
9847;DHT22;4962;50.084;8.794;2022-11-12T02:16:48;11.70;99.90
9847;DHT22;4962;50.084;8.794;2022-11-12T02:19:16;11.60;99.90
9847;DHT22;4962;50.084;8.794;2022-11-12T02:21:44;11.60;99.90
9847;DHT22;4962;50.084;8.794;2022-11-12T02:24:29;11.50;99.90
9847;DHT22;4962;50.084;8.794;2022-11-12T02:26:57;11.40;99.90
9847;DHT22;4962;50.084;8.794;2022-11-12T02:29:24;11.40;99.90
9847;DHT22;4962;50.084;8.794;2022-11-12T02:31:51;11.30;99.90
9847;DHT22;4962;50.084;8.794;2022-11-12T02:34:17;11.20;99.90
9847;DHT22;4962;50.084;8.794;2022-11-12T02:36:46;11.20;99.90
9847;DHT22;4962;50.084;8.794;2022-11-12T02:39:13;11.20;99.90
9847;DHT22;4962;50.084;8.794;2022-11-12T02:41:39;11.10;99.90
9847;DHT22;4962;50.084;8.794;2022-11-12T02:44:06;11.10;99.90
9847;DHT22;4962;50.084;8.794;2022-11-12T02:46:33;11.10;99.90
9847;DHT22;4962;50.084;8.794;2022-11-12T02:49:00;11.00;99.90
9847;DHT22;4962;50.084;8.794;2022-11-12T02:51:27;11.00;99.90
9847;DHT22;4962;50.084;8.794;2022-11-12T02:53:55;11.00;99.90
9847;DHT22;4962;50.084;8.794;2022-11-12T02:56:22;11.00;99.90
9847;DHT22;4962;50.084;8.794;2022-11-12T02:58:49;10.90;99.90
9847;DHT22;4962;50.084;8.794;2022-11-12T03:01:16;10.90;99.90
9847;DHT22;4962;50.084;8.794;2022-11-12T03:03:43;10.90;99.90
9847;DHT22;4962;50.084;8.794;2022-11-12T03:06:10;10.90;99.90
9847;DHT22;4962;50.084;8.794;2022-11-12T03:08:37;10.80;99.90
9847;DHT22;4962;50.084;8.794;2022-11-12T03:11:10;10.70;99.90
9847;DHT22;4962;50.084;8.794;2022-11-12T03:13:37;10.70;99.90
9847;DHT22;4962;50.084;8.794;2022-11-12T03:16:04;10.60;99.90
9847;DHT22;4962;50.084;8.794;2022-11-12T03:18:32;10.50;99.90
9847;DHT22;4962;50.084;8.794;2022-11-12T03:20:59;10.40;99.90
9847;DHT22;4962;50.084;8.794;2022-11-12T03:23:26;10.40;99.90
9847;DHT22;4962;50.084;8.794;2022-11-12T03:25:53;10.30;99.90
9847;DHT22;4962;50.084;8.794;2022-11-12T03:28:22;10.30;99.90
9847;DHT22;4962;50.084;8.794;2022-11-12T03:30:49;10.30;99.90
9847;DHT22;4962;50.084;8.794;2022-11-12T03:33:16;10.30;99.90
9847;DHT22;4962;50.084;8.794;2022-11-12T03:35:43;10.20;99.90
9847;DHT22;4962;50.084;8.794;2022-11-12T03:38:10;10.30;99.90
9847;DHT22;4962;50.084;8.794;2022-11-12T03:40:37;10.30;99.90
9847;DHT22;4962;50.084;8.794;2022-11-12T03:43:04;10.30;99.90
9847;DHT22;4962;50.084;8.794;2022-11-12T03:45:32;10.20;99.90
9847;DHT22;4962;50.084;8.794;2022-11-12T03:47:59;10.20;99.90
9847;DHT22;4962;50.084;8.794;2022-11-12T03:50:28;10.10;99.90
9847;DHT22;4962;50.084;8.794;2022-11-12T03:52:56;10.10;99.90
9847;DHT22;4962;50.084;8.794;2022-11-12T03:55:25;10.10;99.90
9847;DHT22;4962;50.084;8.794;2022-11-12T03:57:52;10.00;99.90
9847;DHT22;4962;50.084;8.794;2022-11-12T04:00:21;10.00;99.90
9847;DHT22;4962;50.084;8.794;2022-11-12T04:02:50;9.90;99.90
9847;DHT22;4962;50.084;8.794;2022-11-12T04:05:17;9.90;99.90
9847;DHT22;4962;50.084;8.794;2022-11-12T04:08:04;9.90;99.90
9847;DHT22;4962;50.084;8.794;2022-11-12T04:10:49;9.90;99.90
9847;DHT22;4962;50.084;8.794;2022-11-12T04:13:16;9.90;99.90
9847;DHT22;4962;50.084;8.794;2022-11-12T04:15:58;9.90;99.90
9847;DHT22;4962;50.084;8.794;2022-11-12T04:18:45;9.90;99.90
9847;DHT22;4962;50.084;8.794;2022-11-12T04:21:31;9.90;99.90
9847;DHT22;4962;50.084;8.794;2022-11-12T04:24:24;9.90;99.90
9847;DHT22;4962;50.084;8.794;2022-11-12T04:27:10;9.90;99.90
9847;DHT22;4962;50.084;8.794;2022-11-12T04:29:38;9.90;99.90
9847;DHT22;4962;50.084;8.794;2022-11-12T04:32:22;10.00;99.90
9847;DHT22;4962;50.084;8.794;2022-11-12T04:34:51;10.00;99.90
9847;DHT22;4962;50.084;8.794;2022-11-12T04:37:18;10.00;99.90
9847;DHT22;4962;50.084;8.794;2022-11-12T04:39:45;10.00;99.90
9847;DHT22;4962;50.084;8.794;2022-11-12T04:42:12;10.10;99.90
9847;DHT22;4962;50.084;8.794;2022-11-12T04:44:56;10.10;99.90
9847;DHT22;4962;50.084;8.794;2022-11-12T04:47:32;10.00;99.90
9847;DHT22;4962;50.084;8.794;2022-11-12T04:50:01;10.00;99.90
9847;DHT22;4962;50.084;8.794;2022-11-12T04:52:28;9.90;99.90
9847;DHT22;4962;50.084;8.794;2022-11-12T04:54:56;9.90;99.90
9847;DHT22;4962;50.084;8.794;2022-11-12T04:57:23;9.80;99.90
9847;DHT22;4962;50.084;8.794;2022-11-12T04:59:50;9.80;99.90
9847;DHT22;4962;50.084;8.794;2022-11-12T05:02:18;9.80;99.90
9847;DHT22;4962;50.084;8.794;2022-11-12T05:04:44;9.80;99.90
9847;DHT22;4962;50.084;8.794;2022-11-12T05:07:13;9.80;99.90
9847;DHT22;4962;50.084;8.794;2022-11-12T05:09:41;9.80;99.90
9847;DHT22;4962;50.084;8.794;2022-11-12T05:12:08;9.80;99.90
9847;DHT22;4962;50.084;8.794;2022-11-12T05:14:35;9.80;99.90
9847;DHT22;4962;50.084;8.794;2022-11-12T05:17:08;9.80;99.90
9847;DHT22;4962;50.084;8.794;2022-11-12T05:19:35;9.80;99.90
9847;DHT22;4962;50.084;8.794;2022-11-12T05:22:02;9.80;99.90
9847;DHT22;4962;50.084;8.794;2022-11-12T05:24:40;9.80;99.90
9847;DHT22;4962;50.084;8.794;2022-11-12T05:27:09;9.80;99.90
9847;DHT22;4962;50.084;8.794;2022-11-12T05:29:36;9.80;99.90
9847;DHT22;4962;50.084;8.794;2022-11-12T05:32:07;9.90;99.90
9847;DHT22;4962;50.084;8.794;2022-11-12T05:34:35;9.90;99.90
9847;DHT22;4962;50.084;8.794;2022-11-12T05:37:03;10.00;99.90
9847;DHT22;4962;50.084;8.794;2022-11-12T05:39:30;10.10;99.90
9847;DHT22;4962;50.084;8.794;2022-11-12T05:41:59;10.10;99.90
9847;DHT22;4962;50.084;8.794;2022-11-12T05:44:26;10.10;99.90
9847;DHT22;4962;50.084;8.794;2022-11-12T05:46:53;10.20;99.90
9847;DHT22;4962;50.084;8.794;2022-11-12T05:49:19;10.30;99.90
9847;DHT22;4962;50.084;8.794;2022-11-12T05:51:47;10.30;99.90
9847;DHT22;4962;50.084;8.794;2022-11-12T05:54:14;10.30;99.90
9847;DHT22;4962;50.084;8.794;2022-11-12T05:56:41;10.30;99.90
9847;DHT22;4962;50.084;8.794;2022-11-12T05:59:11;10.20;99.90
9847;DHT22;4962;50.084;8.794;2022-11-12T06:01:39;10.20;99.90
9847;DHT22;4962;50.084;8.794;2022-11-12T06:04:10;10.10;99.90
9847;DHT22;4962;50.084;8.794;2022-11-12T06:06:39;10.10;99.90
9847;DHT22;4962;50.084;8.794;2022-11-12T06:09:06;10.00;99.90
9847;DHT22;4962;50.084;8.794;2022-11-12T06:11:33;10.00;99.90
9847;DHT22;4962;50.084;8.794;2022-11-12T06:14:01;9.90;99.90
9847;DHT22;4962;50.084;8.794;2022-11-12T06:16:30;9.90;99.90
9847;DHT22;4962;50.084;8.794;2022-11-12T06:18:57;9.90;99.90
9847;DHT22;4962;50.084;8.794;2022-11-12T06:21:24;9.90;99.90
9847;DHT22;4962;50.084;8.794;2022-11-12T06:23:53;9.90;99.90
9847;DHT22;4962;50.084;8.794;2022-11-12T06:26:24;9.90;99.90
9847;DHT22;4962;50.084;8.794;2022-11-12T06:28:52;9.90;99.90
9847;DHT22;4962;50.084;8.794;2022-11-12T06:31:19;9.80;99.90
9847;DHT22;4962;50.084;8.794;2022-11-12T06:33:49;9.90;99.90
9847;DHT22;4962;50.084;8.794;2022-11-12T06:36:18;9.90;99.90
9847;DHT22;4962;50.084;8.794;2022-11-12T06:38:46;9.90;99.90
9847;DHT22;4962;50.084;8.794;2022-11-12T06:41:13;9.90;99.90
9847;DHT22;4962;50.084;8.794;2022-11-12T06:43:41;10.00;99.90
9847;DHT22;4962;50.084;8.794;2022-11-12T06:46:10;10.00;99.90
9847;DHT22;4962;50.084;8.794;2022-11-12T06:48:41;10.10;99.90
9847;DHT22;4962;50.084;8.794;2022-11-12T06:51:19;10.10;99.90
9847;DHT22;4962;50.084;8.794;2022-11-12T06:53:47;10.20;99.90
9847;DHT22;4962;50.084;8.794;2022-11-12T06:56:16;10.30;99.90
9847;DHT22;4962;50.084;8.794;2022-11-12T06:58:45;10.30;99.90
9847;DHT22;4962;50.084;8.794;2022-11-12T07:01:14;10.40;99.90
9847;DHT22;4962;50.084;8.794;2022-11-12T07:03:42;10.40;99.90
9847;DHT22;4962;50.084;8.794;2022-11-12T07:06:11;10.30;99.90
9847;DHT22;4962;50.084;8.794;2022-11-12T07:08:40;10.30;99.90
9847;DHT22;4962;50.084;8.794;2022-11-12T07:11:07;10.30;99.90
9847;DHT22;4962;50.084;8.794;2022-11-12T07:13:35;10.20;99.90
9847;DHT22;4962;50.084;8.794;2022-11-12T07:16:02;10.20;99.90
9847;DHT22;4962;50.084;8.794;2022-11-12T07:18:33;10.20;99.90
9847;DHT22;4962;50.084;8.794;2022-11-12T07:21:02;10.10;99.90
9847;DHT22;4962;50.084;8.794;2022-11-12T07:23:31;10.10;99.90
9847;DHT22;4962;50.084;8.794;2022-11-12T07:26:02;10.10;99.90
9847;DHT22;4962;50.084;8.794;2022-11-12T07:28:29;9.90;99.90
9847;DHT22;4962;50.084;8.794;2022-11-12T07:30:57;9.90;99.90
9847;DHT22;4962;50.084;8.794;2022-11-12T07:33:24;9.80;99.90
9847;DHT22;4962;50.084;8.794;2022-11-12T07:35:58;9.70;99.90
9847;DHT22;4962;50.084;8.794;2022-11-12T07:38:26;9.70;99.90
9847;DHT22;4962;50.084;8.794;2022-11-12T07:41:00;9.60;99.90
9847;DHT22;4962;50.084;8.794;2022-11-12T07:43:28;9.60;99.90
9847;DHT22;4962;50.084;8.794;2022-11-12T07:45:58;9.60;99.90
9847;DHT22;4962;50.084;8.794;2022-11-12T07:48:25;9.60;99.90
9847;DHT22;4962;50.084;8.794;2022-11-12T07:50:59;9.70;99.90
9847;DHT22;4962;50.084;8.794;2022-11-12T07:53:26;9.80;99.90
9847;DHT22;4962;50.084;8.794;2022-11-12T07:55:53;9.90;99.90
9847;DHT22;4962;50.084;8.794;2022-11-12T07:58:22;10.00;99.90
9847;DHT22;4962;50.084;8.794;2022-11-12T08:00:49;10.20;99.90
9847;DHT22;4962;50.084;8.794;2022-11-12T08:03:16;10.30;99.90
9847;DHT22;4962;50.084;8.794;2022-11-12T08:05:44;10.40;99.90
9847;DHT22;4962;50.084;8.794;2022-11-12T08:08:11;10.60;99.90
9847;DHT22;4962;50.084;8.794;2022-11-12T08:10:38;10.70;99.90
9847;DHT22;4962;50.084;8.794;2022-11-12T08:13:05;10.80;99.90
9847;DHT22;4962;50.084;8.794;2022-11-12T08:15:33;10.90;99.90
9847;DHT22;4962;50.084;8.794;2022-11-12T08:18:00;10.90;99.90
9847;DHT22;4962;50.084;8.794;2022-11-12T08:20:27;11.00;99.90
9847;DHT22;4962;50.084;8.794;2022-11-12T08:22:58;11.00;99.90
9847;DHT22;4962;50.084;8.794;2022-11-12T08:25:25;11.10;99.90
9847;DHT22;4962;50.084;8.794;2022-11-12T08:27:55;11.00;99.90
9847;DHT22;4962;50.084;8.794;2022-11-12T08:30:22;11.00;99.90
9847;DHT22;4962;50.084;8.794;2022-11-12T08:32:56;10.90;99.90
9847;DHT22;4962;50.084;8.794;2022-11-12T08:35:23;10.90;99.90
9847;DHT22;4962;50.084;8.794;2022-11-12T08:37:50;10.90;99.90
9847;DHT22;4962;50.084;8.794;2022-11-12T08:40:17;11.00;99.90
9847;DHT22;4962;50.084;8.794;2022-11-12T08:42:45;10.90;99.90
9847;DHT22;4962;50.084;8.794;2022-11-12T08:45:16;11.00;99.90
9847;DHT22;4962;50.084;8.794;2022-11-12T08:47:46;11.00;99.90
9847;DHT22;4962;50.084;8.794;2022-11-12T08:50:15;11.00;99.90
9847;DHT22;4962;50.084;8.794;2022-11-12T08:52:50;11.10;99.90
9847;DHT22;4962;50.084;8.794;2022-11-12T08:55:21;11.10;99.90
9847;DHT22;4962;50.084;8.794;2022-11-12T08:57:48;11.20;99.90
9847;DHT22;4962;50.084;8.794;2022-11-12T09:00:16;11.20;99.90
9847;DHT22;4962;50.084;8.794;2022-11-12T09:02:53;11.30;99.90
9847;DHT22;4962;50.084;8.794;2022-11-12T09:08:46;11.40;99.90
9847;DHT22;4962;50.084;8.794;2022-11-12T09:11:27;11.50;99.90
9847;DHT22;4962;50.084;8.794;2022-11-12T09:13:56;11.60;99.90
9847;DHT22;4962;50.084;8.794;2022-11-12T09:16:32;11.70;99.90
9847;DHT22;4962;50.084;8.794;2022-11-12T09:19:00;11.80;99.90
9847;DHT22;4962;50.084;8.794;2022-11-12T09:21:27;11.90;99.90
9847;DHT22;4962;50.084;8.794;2022-11-12T09:23:56;12.00;99.90
9847;DHT22;4962;50.084;8.794;2022-11-12T09:26:22;12.10;99.90
9847;DHT22;4962;50.084;8.794;2022-11-12T09:28:49;12.20;99.90
9847;DHT22;4962;50.084;8.794;2022-11-12T09:31:18;12.30;99.90
9847;DHT22;4962;50.084;8.794;2022-11-12T09:33:45;12.40;99.90
9847;DHT22;4962;50.084;8.794;2022-11-12T09:36:11;12.50;99.90
9847;DHT22;4962;50.084;8.794;2022-11-12T09:38:38;12.60;99.90
9847;DHT22;4962;50.084;8.794;2022-11-12T09:41:18;12.60;99.90
9847;DHT22;4962;50.084;8.794;2022-11-12T09:43:49;12.70;99.90
9847;DHT22;4962;50.084;8.794;2022-11-12T09:46:37;12.80;99.90
9847;DHT22;4962;50.084;8.794;2022-11-12T09:49:11;12.90;99.90
9847;DHT22;4962;50.084;8.794;2022-11-12T09:51:41;13.00;99.90
9847;DHT22;4962;50.084;8.794;2022-11-12T09:54:17;13.10;99.90
9847;DHT22;4962;50.084;8.794;2022-11-12T09:56:47;13.10;99.90
9847;DHT22;4962;50.084;8.794;2022-11-12T09:59:15;13.20;99.90
9847;DHT22;4962;50.084;8.794;2022-11-12T10:01:55;13.30;99.90
9847;DHT22;4962;50.084;8.794;2022-11-12T10:04:36;13.40;99.90
9847;DHT22;4962;50.084;8.794;2022-11-12T10:07:13;13.40;99.90
9847;DHT22;4962;50.084;8.794;2022-11-12T10:09:50;13.50;99.90
9847;DHT22;4962;50.084;8.794;2022-11-12T10:12:25;13.50;99.90
9847;DHT22;4962;50.084;8.794;2022-11-12T10:15:30;13.60;99.90
9847;DHT22;4962;50.084;8.794;2022-11-12T10:18:26;13.60;99.90
9847;DHT22;4962;50.084;8.794;2022-11-12T10:20:55;13.60;99.90
9847;DHT22;4962;50.084;8.794;2022-11-12T10:23:26;13.70;99.90
9847;DHT22;4962;50.084;8.794;2022-11-12T10:25:56;13.70;99.90
9847;DHT22;4962;50.084;8.794;2022-11-12T10:28:29;13.70;99.90
9847;DHT22;4962;50.084;8.794;2022-11-12T10:31:01;13.80;99.90
9847;DHT22;4962;50.084;8.794;2022-11-12T10:33:31;13.80;99.90
9847;DHT22;4962;50.084;8.794;2022-11-12T10:36:11;13.90;99.90
9847;DHT22;4962;50.084;8.794;2022-11-12T10:38:42;14.00;99.90
9847;DHT22;4962;50.084;8.794;2022-11-12T10:41:19;14.00;99.90
9847;DHT22;4962;50.084;8.794;2022-11-12T10:43:56;14.10;99.90
9847;DHT22;4962;50.084;8.794;2022-11-12T10:46:25;14.10;99.90
9847;DHT22;4962;50.084;8.794;2022-11-12T10:48:53;14.10;99.90
9847;DHT22;4962;50.084;8.794;2022-11-12T10:51:27;14.20;99.90
9847;DHT22;4962;50.084;8.794;2022-11-12T10:53:55;14.20;99.90
9847;DHT22;4962;50.084;8.794;2022-11-12T10:56:25;14.20;99.90
9847;DHT22;4962;50.084;8.794;2022-11-12T10:59:15;14.20;99.90
9847;DHT22;4962;50.084;8.794;2022-11-12T11:01:43;14.30;99.90
9847;DHT22;4962;50.084;8.794;2022-11-12T11:04:24;14.40;99.90
9847;DHT22;4962;50.084;8.794;2022-11-12T11:07:02;14.40;99.90
9847;DHT22;4962;50.084;8.794;2022-11-12T11:09:30;14.40;99.90
9847;DHT22;4962;50.084;8.794;2022-11-12T11:11:57;14.50;99.90
9847;DHT22;4962;50.084;8.794;2022-11-12T11:14:28;14.50;99.90
9847;DHT22;4962;50.084;8.794;2022-11-12T11:16:58;14.60;99.90
9847;DHT22;4962;50.084;8.794;2022-11-12T11:19:32;14.60;99.90
9847;DHT22;4962;50.084;8.794;2022-11-12T11:22:29;14.60;99.90
9847;DHT22;4962;50.084;8.794;2022-11-12T11:25:17;14.70;99.90
9847;DHT22;4962;50.084;8.794;2022-11-12T11:27:55;14.80;99.90
9847;DHT22;4962;50.084;8.794;2022-11-12T11:30:26;14.80;99.90
9847;DHT22;4962;50.084;8.794;2022-11-12T11:33:13;14.90;99.90
9847;DHT22;4962;50.084;8.794;2022-11-12T11:35:51;14.90;99.90
9847;DHT22;4962;50.084;8.794;2022-11-12T11:38:40;15.00;99.90
9847;DHT22;4962;50.084;8.794;2022-11-12T11:41:20;15.00;99.90
9847;DHT22;4962;50.084;8.794;2022-11-12T11:43:59;15.10;99.90
9847;DHT22;4962;50.084;8.794;2022-11-12T11:46:42;15.10;99.90
9847;DHT22;4962;50.084;8.794;2022-11-12T11:49:48;15.20;99.90
9847;DHT22;4962;50.084;8.794;2022-11-12T11:52:40;15.30;99.90
9847;DHT22;4962;50.084;8.794;2022-11-12T11:55:24;15.30;99.90
9847;DHT22;4962;50.084;8.794;2022-11-12T11:57:59;15.40;99.90
9847;DHT22;4962;50.084;8.794;2022-11-12T12:00:37;15.40;99.90
9847;DHT22;4962;50.084;8.794;2022-11-12T12:03:19;15.50;99.90
9847;DHT22;4962;50.084;8.794;2022-11-12T12:06:13;15.50;99.90
9847;DHT22;4962;50.084;8.794;2022-11-12T12:09:01;15.60;99.90
9847;DHT22;4962;50.084;8.794;2022-11-12T12:11:33;15.70;99.90
9847;DHT22;4962;50.084;8.794;2022-11-12T12:14:20;15.70;99.90
9847;DHT22;4962;50.084;8.794;2022-11-12T12:16:59;15.70;99.90
9847;DHT22;4962;50.084;8.794;2022-11-12T12:19:39;15.80;99.90
9847;DHT22;4962;50.084;8.794;2022-11-12T12:22:11;15.80;99.90
9847;DHT22;4962;50.084;8.794;2022-11-12T12:24:46;15.80;99.90
9847;DHT22;4962;50.084;8.794;2022-11-12T12:27:17;15.90;99.90
9847;DHT22;4962;50.084;8.794;2022-11-12T12:29:48;15.90;99.90
9847;DHT22;4962;50.084;8.794;2022-11-12T12:32:19;15.90;99.90
9847;DHT22;4962;50.084;8.794;2022-11-12T12:34:52;16.00;99.90
9847;DHT22;4962;50.084;8.794;2022-11-12T12:37:26;16.00;99.90
9847;DHT22;4962;50.084;8.794;2022-11-12T12:40:02;16.00;99.90
9847;DHT22;4962;50.084;8.794;2022-11-12T12:42:35;16.10;99.90
9847;DHT22;4962;50.084;8.794;2022-11-12T12:45:29;16.10;99.90
9847;DHT22;4962;50.084;8.794;2022-11-12T12:47:59;16.10;99.90
9847;DHT22;4962;50.084;8.794;2022-11-12T12:50:28;16.10;99.90
9847;DHT22;4962;50.084;8.794;2022-11-12T12:53:00;16.20;99.90
9847;DHT22;4962;50.084;8.794;2022-11-12T12:55:35;16.20;99.90
9847;DHT22;4962;50.084;8.794;2022-11-12T12:58:02;16.30;99.90
9847;DHT22;4962;50.084;8.794;2022-11-12T13:00:37;16.30;99.90
9847;DHT22;4962;50.084;8.794;2022-11-12T13:03:05;16.30;99.90
9847;DHT22;4962;50.084;8.794;2022-11-12T13:05:37;16.40;99.90
9847;DHT22;4962;50.084;8.794;2022-11-12T13:08:07;16.40;99.90
9847;DHT22;4962;50.084;8.794;2022-11-12T13:10:53;16.40;99.90
9847;DHT22;4962;50.084;8.794;2022-11-12T13:13:28;16.50;99.90
9847;DHT22;4962;50.084;8.794;2022-11-12T13:15:59;16.50;99.90
9847;DHT22;4962;50.084;8.794;2022-11-12T13:18:57;16.50;99.90
9847;DHT22;4962;50.084;8.794;2022-11-12T13:21:26;16.60;99.90
9847;DHT22;4962;50.084;8.794;2022-11-12T13:23:55;16.60;99.90
9847;DHT22;4962;50.084;8.794;2022-11-12T13:26:56;16.70;99.90
9847;DHT22;4962;50.084;8.794;2022-11-12T13:29:38;16.60;99.90
9847;DHT22;4962;50.084;8.794;2022-11-12T13:32:28;16.70;99.90
9847;DHT22;4962;50.084;8.794;2022-11-12T13:35:13;16.70;99.90
9847;DHT22;4962;50.084;8.794;2022-11-12T13:37:44;16.70;99.90
9847;DHT22;4962;50.084;8.794;2022-11-12T13:40:14;16.80;99.90
9847;DHT22;4962;50.084;8.794;2022-11-12T13:42:41;16.80;99.80
9847;DHT22;4962;50.084;8.794;2022-11-12T13:45:15;16.80;99.60
9847;DHT22;4962;50.084;8.794;2022-11-12T13:47:42;16.90;99.40
9847;DHT22;4962;50.084;8.794;2022-11-12T13:50:15;16.90;99.30
9847;DHT22;4962;50.084;8.794;2022-11-12T13:52:45;16.90;99.10
9847;DHT22;4962;50.084;8.794;2022-11-12T13:55:14;16.90;98.80
9847;DHT22;4962;50.084;8.794;2022-11-12T13:57:48;17.00;98.80
9847;DHT22;4962;50.084;8.794;2022-11-12T14:00:21;17.00;98.60
9847;DHT22;4962;50.084;8.794;2022-11-12T14:02:57;17.00;98.30
9847;DHT22;4962;50.084;8.794;2022-11-12T14:05:27;17.00;98.10
9847;DHT22;4962;50.084;8.794;2022-11-12T14:08:15;17.00;98.00
9847;DHT22;4962;50.084;8.794;2022-11-12T14:10:52;17.10;97.90
9847;DHT22;4962;50.084;8.794;2022-11-12T14:19:22;17.20;97.90
9847;DHT22;4962;50.084;8.794;2022-11-12T14:22:11;17.30;97.70
9847;DHT22;4962;50.084;8.794;2022-11-12T14:24:40;17.30;97.80
9847;DHT22;4962;50.084;8.794;2022-11-12T14:27:33;17.40;97.20
9847;DHT22;4962;50.084;8.794;2022-11-12T14:30:18;17.40;97.10
9847;DHT22;4962;50.084;8.794;2022-11-12T14:32:48;17.40;97.70
9847;DHT22;4962;50.084;8.794;2022-11-12T14:35:28;17.40;98.30
9847;DHT22;4962;50.084;8.794;2022-11-12T14:37:59;17.40;98.80
9847;DHT22;4962;50.084;8.794;2022-11-12T14:40:51;17.30;99.00
9847;DHT22;4962;50.084;8.794;2022-11-12T14:43:25;17.30;99.10
9847;DHT22;4962;50.084;8.794;2022-11-12T14:45:54;17.30;99.10
9847;DHT22;4962;50.084;8.794;2022-11-12T14:48:22;17.30;99.30
9847;DHT22;4962;50.084;8.794;2022-11-12T14:50:55;17.20;99.40
9847;DHT22;4962;50.084;8.794;2022-11-12T14:53:27;17.20;99.70
9847;DHT22;4962;50.084;8.794;2022-11-12T14:56:07;17.20;99.90
9847;DHT22;4962;50.084;8.794;2022-11-12T14:58:35;17.20;99.90
9847;DHT22;4962;50.084;8.794;2022-11-12T15:01:24;17.10;99.90
9847;DHT22;4962;50.084;8.794;2022-11-12T15:04:03;17.10;99.90
9847;DHT22;4962;50.084;8.794;2022-11-12T15:06:31;17.00;99.90
9847;DHT22;4962;50.084;8.794;2022-11-12T15:08:59;17.00;99.90
9847;DHT22;4962;50.084;8.794;2022-11-12T15:11:30;17.00;99.90
9847;DHT22;4962;50.084;8.794;2022-11-12T15:14:00;17.00;99.90
9847;DHT22;4962;50.084;8.794;2022-11-12T15:16:31;16.90;99.90
9847;DHT22;4962;50.084;8.794;2022-11-12T15:19:19;16.90;99.90
9847;DHT22;4962;50.084;8.794;2022-11-12T15:21:49;16.90;99.90
9847;DHT22;4962;50.084;8.794;2022-11-12T15:24:19;16.90;99.90
9847;DHT22;4962;50.084;8.794;2022-11-12T15:26:54;16.90;99.90
9847;DHT22;4962;50.084;8.794;2022-11-12T15:29:29;16.80;99.90
9847;DHT22;4962;50.084;8.794;2022-11-12T15:31:59;16.80;99.90
9847;DHT22;4962;50.084;8.794;2022-11-12T15:34:32;16.80;99.90
9847;DHT22;4962;50.084;8.794;2022-11-12T15:37:03;16.80;99.90
9847;DHT22;4962;50.084;8.794;2022-11-12T15:39:32;16.80;99.90
9847;DHT22;4962;50.084;8.794;2022-11-12T15:42:05;16.70;99.90
9847;DHT22;4962;50.084;8.794;2022-11-12T15:44:34;16.70;99.90
9847;DHT22;4962;50.084;8.794;2022-11-12T15:47:03;16.70;99.90
9847;DHT22;4962;50.084;8.794;2022-11-12T15:49:30;16.60;99.90
9847;DHT22;4962;50.084;8.794;2022-11-12T15:51:57;16.60;99.90
9847;DHT22;4962;50.084;8.794;2022-11-12T15:54:23;16.50;99.90
9847;DHT22;4962;50.084;8.794;2022-11-12T15:56:50;16.50;99.90
9847;DHT22;4962;50.084;8.794;2022-11-12T15:59:19;16.50;99.90
9847;DHT22;4962;50.084;8.794;2022-11-12T16:01:46;16.50;99.90
9847;DHT22;4962;50.084;8.794;2022-11-12T16:04:12;16.50;99.90
9847;DHT22;4962;50.084;8.794;2022-11-12T16:06:39;16.50;99.90
9847;DHT22;4962;50.084;8.794;2022-11-12T16:09:07;16.40;99.90
9847;DHT22;4962;50.084;8.794;2022-11-12T16:11:34;16.30;99.90
9847;DHT22;4962;50.084;8.794;2022-11-12T16:14:06;16.30;99.90
9847;DHT22;4962;50.084;8.794;2022-11-12T16:16:37;16.30;99.90
9847;DHT22;4962;50.084;8.794;2022-11-12T16:19:10;16.30;99.90
9847;DHT22;4962;50.084;8.794;2022-11-12T16:21:38;16.20;99.90
9847;DHT22;4962;50.084;8.794;2022-11-12T16:24:08;16.20;99.90
9847;DHT22;4962;50.084;8.794;2022-11-12T16:26:35;16.20;99.90
9847;DHT22;4962;50.084;8.794;2022-11-12T16:29:05;16.10;99.90
9847;DHT22;4962;50.084;8.794;2022-11-12T16:31:34;16.10;99.90
9847;DHT22;4962;50.084;8.794;2022-11-12T16:34:02;16.00;99.90
9847;DHT22;4962;50.084;8.794;2022-11-12T16:36:29;16.00;99.90
9847;DHT22;4962;50.084;8.794;2022-11-12T16:38:57;16.00;99.90
9847;DHT22;4962;50.084;8.794;2022-11-12T16:41:24;16.00;99.90